Time;durP1;ratioP1;P1;durP2;ratioP2;P2;SDS_P1;SDS_P2;PMS_P1;PMS_P2;Temp;Humidity;BMP_temperature;BMP_pressure;BME280_temperature;BME280_humidity;BME280_pressure;Samples;Min_cycle;Max_cycle;Signal;HPM_P1;HPM_P2
2022/06/08 00:02:23;;;;;;;;;;;15.60;99.90;;;;;;5062851;28;19920;-68
2022/06/08 00:04:50;;;;;;;;;;;15.60;99.90;;;;;;5063825;28;19920;-68
2022/06/08 00:07:17;;;;;;;;;;;15.60;99.90;;;;;;5066231;28;20212;-68
2022/06/08 00:09:45;;;;;;;;;;;15.60;99.90;;;;;;5066702;28;20101;-69
2022/06/08 00:12:12;;;;;;;;;;;15.60;99.90;;;;;;5065838;28;20170;-69
2022/06/08 00:14:39;;;;;;;;;;;15.70;99.90;;;;;;5066671;28;19921;-69
2022/06/08 00:17:06;;;;;;;;;;;15.60;99.90;;;;;;5066403;28;20175;-69
2022/06/08 00:19:32;;;;;;;;;;;15.60;99.90;;;;;;5066579;28;19982;-69
2022/06/08 00:21:59;;;;;;;;;;;15.60;99.90;;;;;;5066613;28;19988;-68
2022/06/08 00:24:27;;;;;;;;;;;15.70;99.90;;;;;;5066305;28;20093;-69
2022/06/08 00:26:55;;;;;;;;;;;15.70;99.90;;;;;;5066160;28;20232;-68
2022/06/08 00:29:22;;;;;;;;;;;15.70;99.90;;;;;;5066463;28;20200;-68
2022/06/08 00:31:49;;;;;;;;;;;15.70;99.90;;;;;;5066532;28;19928;-68
2022/06/08 00:34:15;;;;;;;;;;;15.70;99.90;;;;;;5066332;28;19921;-68
2022/06/08 00:36:42;;;;;;;;;;;15.70;99.90;;;;;;5065873;28;20228;-69
2022/06/08 00:39:09;;;;;;;;;;;15.70;99.90;;;;;;5066212;28;19920;-68
2022/06/08 00:41:44;;;;;;;;;;;15.70;99.90;;;;;;5066399;28;19921;-68
2022/06/08 00:44:13;;;;;;;;;;;15.70;99.90;;;;;;5066188;28;19920;-68
2022/06/08 00:46:40;;;;;;;;;;;15.60;99.90;;;;;;5065601;28;19948;-68
2022/06/08 00:49:12;;;;;;;;;;;15.60;99.90;;;;;;5066095;28;19921;-69
2022/06/08 00:51:38;;;;;;;;;;;15.60;99.90;;;;;;5065770;28;19947;-68
2022/06/08 00:54:07;;;;;;;;;;;15.60;99.90;;;;;;5065935;28;19921;-68
2022/06/08 00:56:36;;;;;;;;;;;15.60;99.90;;;;;;5065613;28;19921;-68
2022/06/08 00:59:03;;;;;;;;;;;15.60;99.90;;;;;;5065918;28;19956;-69
2022/06/08 01:01:31;;;;;;;;;;;15.60;99.90;;;;;;5065767;28;19921;-69
2022/06/08 01:04:08;;;;;;;;;;;15.50;99.90;;;;;;5065638;28;19966;-69
2022/06/08 01:06:35;;;;;;;;;;;15.50;99.90;;;;;;5065202;28;19959;-68
2022/06/08 01:09:02;;;;;;;;;;;15.50;99.90;;;;;;5065812;28;19992;-69
2022/06/08 01:11:33;;;;;;;;;;;15.40;99.90;;;;;;5064746;28;19928;-69
2022/06/08 01:14:02;;;;;;;;;;;15.40;99.90;;;;;;5065588;28;19952;-69
2022/06/08 01:16:28;;;;;;;;;;;15.40;99.90;;;;;;5064120;28;19921;-69
2022/06/08 01:18:56;;;;;;;;;;;15.40;99.90;;;;;;5065754;28;19921;-68
2022/06/08 01:21:42;;;;;;;;;;;15.40;99.90;;;;;;5065440;28;20179;-68
2022/06/08 01:24:11;;;;;;;;;;;15.40;99.90;;;;;;5065498;28;20003;-68
2022/06/08 01:26:40;;;;;;;;;;;15.40;99.90;;;;;;5064892;28;19956;-69
2022/06/08 01:29:11;;;;;;;;;;;15.30;99.90;;;;;;5065287;28;19920;-69
2022/06/08 01:31:41;;;;;;;;;;;15.30;99.90;;;;;;5065398;28;19927;-68
2022/06/08 01:34:12;;;;;;;;;;;15.30;99.90;;;;;;5063971;28;19921;-69
2022/06/08 01:36:51;;;;;;;;;;;15.30;99.90;;;;;;5064979;28;19971;-68
2022/06/08 01:39:23;;;;;;;;;;;15.30;99.90;;;;;;5064996;28;19952;-70
2022/06/08 01:42:00;;;;;;;;;;;15.30;99.90;;;;;;5064977;28;20220;-69
2022/06/08 01:44:37;;;;;;;;;;;15.20;99.90;;;;;;5065188;28;20246;-68
2022/06/08 01:47:06;;;;;;;;;;;15.20;99.90;;;;;;5072402;23;19921;-90
2022/06/08 01:49:37;;;;;;;;;;;15.20;99.90;;;;;;5064918;28;19921;-90
2022/06/08 01:52:17;;;;;;;;;;;15.10;99.90;;;;;;5064938;28;19956;-90
2022/06/08 01:54:54;;;;;;;;;;;15.10;99.90;;;;;;5064723;28;19920;-89
2022/06/08 01:57:29;;;;;;;;;;;15.00;99.90;;;;;;5064502;28;19921;-90
2022/06/08 02:00:02;;;;;;;;;;;15.00;99.90;;;;;;5064874;28;19921;-90
2022/06/08 02:02:30;;;;;;;;;;;15.00;99.90;;;;;;5064808;28;19920;-90
2022/06/08 02:05:00;;;;;;;;;;;14.90;99.90;;;;;;5064510;28;20120;-89
2022/06/08 02:07:30;;;;;;;;;;;15.00;99.90;;;;;;5064159;28;19947;-89
2022/06/08 02:10:01;;;;;;;;;;;14.90;99.90;;;;;;5043971;28;20259;-90
2022/06/08 02:12:31;;;;;;;;;;;14.80;99.90;;;;;;5043060;28;20128;-89
2022/06/08 02:14:59;;;;;;;;;;;14.80;99.90;;;;;;5043979;28;19948;-89
2022/06/08 02:17:29;;;;;;;;;;;14.70;99.90;;;;;;5044001;28;19941;-90
2022/06/08 02:20:01;;;;;;;;;;;14.70;99.90;;;;;;5044317;28;19921;-90
2022/06/08 02:22:31;;;;;;;;;;;14.60;99.90;;;;;;5044267;28;20232;-91
2022/06/08 02:25:01;;;;;;;;;;;14.50;99.90;;;;;;5044290;28;19952;-90
2022/06/08 02:27:31;;;;;;;;;;;14.50;99.90;;;;;;5043839;28;19944;-90
2022/06/08 02:30:00;;;;;;;;;;;14.50;99.90;;;;;;5044180;28;19925;-91
2022/06/08 02:35:18;;;;;;;;;;;14.50;99.90;;;;;;5044481;28;19923;-90
2022/06/08 02:37:46;;;;;;;;;;;14.50;99.90;;;;;;5043824;28;19928;-91
2022/06/08 02:40:15;;;;;;;;;;;14.50;99.90;;;;;;5044089;28;19921;-92
2022/06/08 02:42:44;;;;;;;;;;;14.50;99.90;;;;;;5043825;28;19920;-94
2022/06/08 02:45:13;;;;;;;;;;;14.40;99.90;;;;;;5043645;28;19928;-93
2022/06/08 02:47:42;;;;;;;;;;;14.40;99.90;;;;;;5043496;28;19921;-92
2022/06/08 02:50:09;;;;;;;;;;;14.40;99.90;;;;;;5043677;28;20128;-92
2022/06/08 02:52:36;;;;;;;;;;;14.40;99.90;;;;;;5043945;28;19929;-92
2022/06/08 02:55:04;;;;;;;;;;;14.40;99.90;;;;;;5043626;28;20220;-92
2022/06/08 02:57:37;;;;;;;;;;;14.40;99.90;;;;;;5043158;28;19944;-93
2022/06/08 03:00:08;;;;;;;;;;;14.40;99.90;;;;;;5043639;28;19921;-90
2022/06/08 03:02:37;;;;;;;;;;;14.40;99.90;;;;;;5043609;28;19921;-93
2022/06/08 03:05:08;;;;;;;;;;;14.30;99.90;;;;;;5043701;28;19929;-90
2022/06/08 03:07:39;;;;;;;;;;;14.30;99.90;;;;;;5043304;28;20178;-92
2022/06/08 03:10:08;;;;;;;;;;;14.30;99.90;;;;;;5043506;28;19948;-93
2022/06/08 03:12:38;;;;;;;;;;;14.20;99.90;;;;;;5042764;28;19989;-92
2022/06/08 03:15:06;;;;;;;;;;;14.30;99.90;;;;;;5043399;28;19929;-92
2022/06/08 03:17:34;;;;;;;;;;;14.20;99.90;;;;;;5043048;28;19945;-92
2022/06/08 03:20:02;;;;;;;;;;;14.20;99.90;;;;;;5042560;28;19960;-92
2022/06/08 03:22:29;;;;;;;;;;;14.20;99.90;;;;;;5043381;28;19921;-92
2022/06/08 03:24:56;;;;;;;;;;;14.20;99.90;;;;;;5043344;28;19956;-92
2022/06/08 03:27:23;;;;;;;;;;;14.10;99.90;;;;;;5042947;28;20116;-92
2022/06/08 03:29:51;;;;;;;;;;;14.10;99.90;;;;;;5043037;28;19949;-92
2022/06/08 03:32:18;;;;;;;;;;;14.10;99.90;;;;;;5043181;28;19921;-92
2022/06/08 03:34:45;;;;;;;;;;;14.10;99.90;;;;;;5044293;28;19921;-93
2022/06/08 03:37:12;;;;;;;;;;;14.10;99.90;;;;;;5043535;28;20216;-94
2022/06/08 03:39:39;;;;;;;;;;;14.00;99.90;;;;;;5060392;28;19949;-93
2022/06/08 03:42:06;;;;;;;;;;;14.00;99.90;;;;;;5053763;28;20085;-92
2022/06/08 03:44:33;;;;;;;;;;;14.10;99.90;;;;;;5049895;28;19941;-92
2022/06/08 03:47:02;;;;;;;;;;;14.00;99.90;;;;;;5049195;28;20132;-92
2022/06/08 03:49:30;;;;;;;;;;;14.00;99.90;;;;;;5049655;28;20187;-92
2022/06/08 03:51:57;;;;;;;;;;;14.00;99.90;;;;;;5049901;28;19921;-92
2022/06/08 03:54:26;;;;;;;;;;;13.90;99.90;;;;;;5049688;28;19968;-91
2022/06/08 03:56:54;;;;;;;;;;;13.90;99.90;;;;;;5049143;28;19988;-92
2022/06/08 03:59:22;;;;;;;;;;;13.90;99.90;;;;;;5049553;28;19921;-92
2022/06/08 04:01:49;;;;;;;;;;;13.90;99.90;;;;;;5049514;28;19980;-93
2022/06/08 04:04:17;;;;;;;;;;;13.90;99.90;;;;;;5049593;28;19928;-93
2022/06/08 04:06:45;;;;;;;;;;;13.90;99.90;;;;;;5049507;28;20120;-92
2022/06/08 04:09:12;;;;;;;;;;;13.90;99.90;;;;;;5049482;28;20101;-93
2022/06/08 04:11:39;;;;;;;;;;;13.90;99.90;;;;;;5048729;28;20208;-92
2022/06/08 04:14:06;;;;;;;;;;;13.80;99.90;;;;;;5049646;28;19948;-92
2022/06/08 04:16:32;;;;;;;;;;;13.80;99.90;;;;;;5049128;28;19943;-92
2022/06/08 04:19:00;;;;;;;;;;;13.90;99.90;;;;;;5049247;28;20097;-92
2022/06/08 04:21:28;;;;;;;;;;;14.00;99.90;;;;;;5049734;28;19982;-92
2022/06/08 04:23:55;;;;;;;;;;;14.00;99.90;;;;;;5049653;28;19921;-92
2022/06/08 04:26:23;;;;;;;;;;;14.10;99.90;;;;;;5049335;28;19928;-92
2022/06/08 04:28:49;;;;;;;;;;;14.20;99.90;;;;;;5049485;28;19921;-92
2022/06/08 04:31:16;;;;;;;;;;;14.20;99.90;;;;;;5049663;28;19921;-92
2022/06/08 04:33:43;;;;;;;;;;;14.30;99.90;;;;;;5050027;28;19921;-92
2022/06/08 04:36:11;;;;;;;;;;;14.40;99.90;;;;;;5049120;28;19941;-92
2022/06/08 04:38:39;;;;;;;;;;;14.50;99.90;;;;;;5049038;28;19952;-92
2022/06/08 04:41:06;;;;;;;;;;;14.50;99.90;;;;;;5049345;28;19921;-92
2022/06/08 04:43:33;;;;;;;;;;;14.50;99.90;;;;;;5049292;28;19928;-92
2022/06/08 04:45:59;;;;;;;;;;;14.50;99.90;;;;;;5048788;28;19921;-92
2022/06/08 04:48:28;;;;;;;;;;;14.60;99.90;;;;;;5048639;28;22144;-92
2022/06/08 04:50:55;;;;;;;;;;;14.60;99.90;;;;;;5047499;28;20172;-92
2022/06/08 04:53:22;;;;;;;;;;;14.60;99.90;;;;;;5046106;28;19921;-93
2022/06/08 04:55:50;;;;;;;;;;;14.60;99.90;;;;;;5045992;28;19944;-93
2022/06/08 04:58:20;;;;;;;;;;;14.60;99.90;;;;;;5045854;28;19921;-92
2022/06/08 05:00:47;;;;;;;;;;;14.60;99.90;;;;;;5046177;28;20212;-92
2022/06/08 05:03:14;;;;;;;;;;;14.70;99.90;;;;;;5045990;28;20177;-92
2022/06/08 05:05:41;;;;;;;;;;;14.70;99.90;;;;;;5045568;28;19955;-93
2022/06/08 05:08:08;;;;;;;;;;;14.80;99.90;;;;;;5045670;28;19921;-92
2022/06/08 05:10:37;;;;;;;;;;;14.90;99.90;;;;;;5045965;28;19921;-92
2022/06/08 05:13:06;;;;;;;;;;;14.90;99.90;;;;;;5044904;28;20250;-92
2022/06/08 05:15:33;;;;;;;;;;;14.90;99.90;;;;;;5045550;28;19920;-92
2022/06/08 05:18:00;;;;;;;;;;;15.00;99.90;;;;;;5045547;28;20224;-92
2022/06/08 05:20:28;;;;;;;;;;;15.10;99.90;;;;;;5045472;28;19921;-92
2022/06/08 05:22:55;;;;;;;;;;;15.10;99.90;;;;;;5045707;28;19928;-92
2022/06/08 05:25:25;;;;;;;;;;;15.10;99.90;;;;;;5045464;28;19928;-92
2022/06/08 05:27:51;;;;;;;;;;;15.20;99.90;;;;;;5045561;28;19928;-92
2022/06/08 05:30:20;;;;;;;;;;;15.20;99.90;;;;;;5045268;28;19921;-92
2022/06/08 05:32:47;;;;;;;;;;;15.20;99.90;;;;;;5045261;28;19949;-91
2022/06/08 05:35:14;;;;;;;;;;;15.40;99.90;;;;;;5045286;28;19985;-92
2022/06/08 05:37:41;;;;;;;;;;;15.50;99.90;;;;;;5045233;28;19925;-92
2022/06/08 05:40:08;;;;;;;;;;;15.60;99.90;;;;;;5045365;28;19920;-91
2022/06/08 05:42:35;;;;;;;;;;;15.70;99.90;;;;;;5045271;28;19928;-92
2022/06/08 05:45:02;;;;;;;;;;;15.80;99.90;;;;;;5045200;28;20283;-92
2022/06/08 05:47:30;;;;;;;;;;;16.00;99.90;;;;;;5044774;28;20124;-93
2022/06/08 05:49:57;;;;;;;;;;;16.00;99.90;;;;;;5045159;28;19921;-92
2022/06/08 05:52:24;;;;;;;;;;;16.10;99.90;;;;;;5045173;28;19940;-92
2022/06/08 05:54:51;;;;;;;;;;;16.20;99.90;;;;;;5045171;28;19922;-92
2022/06/08 05:57:17;;;;;;;;;;;16.20;99.90;;;;;;5044602;28;19921;-93
2022/06/08 05:59:44;;;;;;;;;;;16.20;99.90;;;;;;5044772;28;19945;-92
2022/06/08 06:02:12;;;;;;;;;;;16.20;99.90;;;;;;5044437;28;20239;-92
2022/06/08 06:04:41;;;;;;;;;;;16.20;99.90;;;;;;5044765;28;19944;-92
2022/06/08 06:07:07;;;;;;;;;;;16.20;99.90;;;;;;5044514;28;19921;-92
2022/06/08 06:09:34;;;;;;;;;;;16.20;99.90;;;;;;5044689;28;19945;-92
2022/06/08 06:12:02;;;;;;;;;;;16.30;99.90;;;;;;5044127;28;20100;-92
2022/06/08 06:14:29;;;;;;;;;;;16.40;99.90;;;;;;5045218;28;19928;-92
2022/06/08 06:16:56;;;;;;;;;;;16.40;99.90;;;;;;5044696;28;20012;-92
2022/06/08 06:19:23;;;;;;;;;;;16.50;99.90;;;;;;5044970;28;19928;-92
2022/06/08 06:21:51;;;;;;;;;;;16.50;99.90;;;;;;5045397;28;20101;-92
2022/06/08 06:24:18;;;;;;;;;;;16.50;99.90;;;;;;5046429;28;19921;-91
2022/06/08 06:26:45;;;;;;;;;;;16.50;99.90;;;;;;5046189;28;19928;-92
2022/06/08 06:29:14;;;;;;;;;;;16.50;99.90;;;;;;5045225;28;19921;-92
2022/06/08 06:31:42;;;;;;;;;;;16.60;99.90;;;;;;5045208;28;20144;-92
2022/06/08 06:34:11;;;;;;;;;;;16.70;99.90;;;;;;5044431;28;19929;-93
2022/06/08 06:36:37;;;;;;;;;;;16.70;99.90;;;;;;5044665;28;19928;-92
2022/06/08 06:39:06;;;;;;;;;;;16.70;99.90;;;;;;5078414;22;19920;-68
2022/06/08 06:41:33;;;;;;;;;;;16.70;99.90;;;;;;5083998;28;20107;-68
2022/06/08 06:44:00;;;;;;;;;;;16.70;99.90;;;;;;5084091;28;20172;-69
2022/06/08 06:46:27;;;;;;;;;;;16.80;99.90;;;;;;5083757;28;19958;-68
2022/06/08 06:48:53;;;;;;;;;;;16.80;99.90;;;;;;5083459;28;19948;-68
2022/06/08 06:51:20;;;;;;;;;;;16.80;99.90;;;;;;5084011;28;19958;-68
2022/06/08 06:53:46;;;;;;;;;;;16.90;99.90;;;;;;5107813;22;19920;-69
2022/06/08 06:56:14;;;;;;;;;;;16.80;99.90;;;;;;5103582;28;19987;-71
2022/06/08 06:58:42;;;;;;;;;;;16.90;99.90;;;;;;5104332;28;20159;-71
2022/06/08 07:01:08;;;;;;;;;;;16.90;99.90;;;;;;5103841;28;19963;-69
2022/06/08 07:03:35;;;;;;;;;;;17.00;99.90;;;;;;5103936;28;19920;-69
2022/06/08 07:06:02;;;;;;;;;;;17.10;99.90;;;;;;5104078;28;19920;-69
2022/06/08 07:08:29;;;;;;;;;;;17.10;99.90;;;;;;5103330;28;19920;-69
2022/06/08 07:13:41;;;;;;;;;;;17.20;99.90;;;;;;5103623;28;19922;-71
2022/06/08 07:16:08;;;;;;;;;;;17.20;99.90;;;;;;5103011;28;20208;-69
2022/06/08 07:18:35;;;;;;;;;;;17.30;99.90;;;;;;5103463;28;20080;-69
2022/06/08 07:21:02;;;;;;;;;;;17.30;99.90;;;;;;5103547;28;19920;-69
2022/06/08 07:23:29;;;;;;;;;;;17.40;99.90;;;;;;5103782;28;20150;-69
2022/06/08 07:25:55;;;;;;;;;;;17.40;99.90;;;;;;5103273;28;20182;-69
2022/06/08 07:28:22;;;;;;;;;;;17.40;99.90;;;;;;5103554;28;19954;-71
2022/06/08 07:30:51;;;;;;;;;;;17.40;99.90;;;;;;5104039;28;19927;-68
2022/06/08 07:33:17;;;;;;;;;;;17.50;99.90;;;;;;5103481;28;20211;-69
2022/06/08 07:35:44;;;;;;;;;;;17.60;99.90;;;;;;5103110;28;20253;-68
2022/06/08 07:38:11;;;;;;;;;;;17.70;99.90;;;;;;5103863;28;19957;-69
2022/06/08 07:40:38;;;;;;;;;;;17.70;99.90;;;;;;5103262;28;20203;-69
2022/06/08 07:43:04;;;;;;;;;;;17.80;99.90;;;;;;5103377;28;19975;-71
2022/06/08 07:45:31;;;;;;;;;;;17.90;99.90;;;;;;5103197;28;19962;-69
2022/06/08 07:50:43;;;;;;;;;;;18.10;99.90;;;;;;5103019;28;20004;-69
2022/06/08 07:53:10;;;;;;;;;;;18.30;99.90;;;;;;5103408;28;19959;-69
2022/06/08 07:55:37;;;;;;;;;;;18.30;99.90;;;;;;5103099;28;19927;-69
2022/06/08 07:58:04;;;;;;;;;;;18.40;99.90;;;;;;5103122;28;19920;-69
2022/06/08 08:00:31;;;;;;;;;;;18.50;99.90;;;;;;5102135;28;19927;-69
2022/06/08 08:02:59;;;;;;;;;;;18.70;99.90;;;;;;5103187;28;19926;-69
2022/06/08 08:05:26;;;;;;;;;;;18.80;99.90;;;;;;5102985;28;19927;-69
2022/06/08 08:07:53;;;;;;;;;;;18.80;99.90;;;;;;5103318;28;19920;-71
2022/06/08 08:10:21;;;;;;;;;;;19.00;99.90;;;;;;5103306;28;19989;-69
2022/06/08 08:12:48;;;;;;;;;;;19.10;99.90;;;;;;5102365;28;19924;-69
2022/06/08 08:15:15;;;;;;;;;;;19.20;99.90;;;;;;5102817;28;19958;-69
2022/06/08 08:17:42;;;;;;;;;;;19.20;99.90;;;;;;5103181;28;20203;-69
2022/06/08 08:20:12;;;;;;;;;;;19.20;99.90;;;;;;5102955;28;19955;-69
2022/06/08 08:22:39;;;;;;;;;;;19.20;99.90;;;;;;5102995;28;20121;-69
2022/06/08 08:25:06;;;;;;;;;;;19.20;99.90;;;;;;5103009;28;19943;-69
2022/06/08 08:27:33;;;;;;;;;;;19.20;99.90;;;;;;5106738;28;19992;-69
2022/06/08 08:30:00;;;;;;;;;;;19.30;99.90;;;;;;5106969;28;19992;-69
2022/06/08 08:32:26;;;;;;;;;;;19.40;99.90;;;;;;5107157;28;19920;-69
2022/06/08 08:34:53;;;;;;;;;;;19.50;99.90;;;;;;5106696;28;19920;-69
2022/06/08 08:37:21;;;;;;;;;;;19.50;99.90;;;;;;5106321;28;19987;-71
2022/06/08 08:39:48;;;;;;;;;;;19.60;99.90;;;;;;5106574;28;19927;-71
2022/06/08 08:42:22;;;;;;;;;;;19.60;99.90;;;;;;5106604;28;19951;-70
2022/06/08 08:44:50;;;;;;;;;;;19.60;99.90;;;;;;5106584;28;20198;-69
2022/06/08 08:47:24;;;;;;;;;;;19.50;99.90;;;;;;5106595;28;19920;-69
2022/06/08 08:49:53;;;;;;;;;;;19.50;99.90;;;;;;5106594;28;19920;-69
2022/06/08 08:52:28;;;;;;;;;;;19.60;99.90;;;;;;5106499;28;19928;-71
2022/06/08 08:54:57;;;;;;;;;;;19.60;99.90;;;;;;5106168;28;20231;-69
2022/06/08 08:57:27;;;;;;;;;;;19.60;99.90;;;;;;5106042;28;19919;-69
2022/06/08 08:59:53;;;;;;;;;;;19.60;99.90;;;;;;5105454;28;19920;-68
2022/06/08 09:05:03;;;;;;;;;;;19.80;99.90;;;;;;5105947;28;20186;-69
2022/06/08 09:07:31;;;;;;;;;;;19.80;99.90;;;;;;5106261;28;19970;-70
2022/06/08 09:09:57;;;;;;;;;;;19.90;99.90;;;;;;5106239;28;19955;-70
2022/06/08 09:12:24;;;;;;;;;;;19.90;99.90;;;;;;5105377;28;19956;-69
2022/06/08 09:14:52;;;;;;;;;;;20.00;99.90;;;;;;5106368;28;19983;-69
2022/06/08 09:17:19;;;;;;;;;;;20.00;99.90;;;;;;5105688;28;19983;-69
2022/06/08 09:19:47;;;;;;;;;;;20.00;99.90;;;;;;5106020;28;19927;-69
2022/06/08 09:22:19;;;;;;;;;;;20.10;99.90;;;;;;5106195;28;19921;-70
2022/06/08 09:24:48;;;;;;;;;;;20.20;99.90;;;;;;5106074;28;19920;-69
2022/06/08 09:27:17;;;;;;;;;;;20.30;99.90;;;;;;5105676;28;19927;-71
2022/06/08 09:29:55;;;;;;;;;;;20.30;99.90;;;;;;5105723;28;20123;-70
2022/06/08 09:32:25;;;;;;;;;;;20.40;99.90;;;;;;5105695;28;19920;-70
2022/06/08 09:34:55;;;;;;;;;;;20.40;99.90;;;;;;5105924;28;19920;-70
2022/06/08 09:37:24;;;;;;;;;;;20.60;99.90;;;;;;5104520;28;19983;-68
2022/06/08 09:39:53;;;;;;;;;;;20.80;99.90;;;;;;5105384;28;19920;-69
2022/06/08 09:42:28;;;;;;;;;;;21.00;99.90;;;;;;5105671;28;19951;-69
2022/06/08 09:44:59;;;;;;;;;;;21.00;99.90;;;;;;5105294;28;20176;-69
2022/06/08 09:53:12;;;;;;;;;;;20.70;99.90;;;;;;5105384;28;19942;-69
2022/06/08 09:55:47;;;;;;;;;;;20.60;99.90;;;;;;5105232;28;19947;-69
2022/06/08 09:58:24;;;;;;;;;;;20.70;99.90;;;;;;5105317;28;19987;-69
2022/06/08 10:00:53;;;;;;;;;;;20.70;99.90;;;;;;5105038;28;20204;-69
2022/06/08 10:03:37;;;;;;;;;;;20.70;99.90;;;;;;5105035;28;19920;-69
2022/06/08 10:06:07;;;;;;;;;;;20.70;99.90;;;;;;5104633;28;20092;-69
2022/06/08 10:08:42;;;;;;;;;;;20.80;99.90;;;;;;5105164;28;19955;-69
2022/06/08 10:13:56;;;;;;;;;;;21.20;99.90;;;;;;5104472;28;20199;-70
2022/06/08 10:16:24;;;;;;;;;;;21.40;99.90;;;;;;5104620;28;19976;-70
2022/06/08 10:18:55;;;;;;;;;;;21.50;99.90;;;;;;5104685;28;19951;-70
2022/06/08 10:21:24;;;;;;;;;;;21.60;99.90;;;;;;5104657;28;20186;-69
2022/06/08 10:23:54;;;;;;;;;;;21.70;99.90;;;;;;5104651;28;20216;-69
2022/06/08 10:26:24;;;;;;;;;;;21.90;99.90;;;;;;5104314;28;19927;-71
2022/06/08 10:28:53;;;;;;;;;;;22.10;99.90;;;;;;5102587;28;19920;-69
2022/06/08 10:31:22;;;;;;;;;;;22.30;99.90;;;;;;5103829;28;19920;-70
2022/06/08 10:33:52;;;;;;;;;;;22.30;99.90;;;;;;5104138;28;20176;-69
2022/06/08 10:36:19;;;;;;;;;;;22.10;99.90;;;;;;5104558;28;20168;-69
2022/06/08 10:38:46;;;;;;;;;;;22.00;99.90;;;;;;5104095;28;19943;-69
2022/06/08 10:44:05;;;;;;;;;;;22.10;99.90;;;;;;5104333;28;19923;-69
2022/06/08 10:46:39;;;;;;;;;;;22.40;99.90;;;;;;5103278;28;19956;-70
2022/06/08 10:49:05;;;;;;;;;;;22.70;99.90;;;;;;5103357;28;19962;-70
2022/06/08 10:51:39;;;;;;;;;;;23.00;99.90;;;;;;5103849;28;19971;-70
2022/06/08 10:57:31;;;;;;;;;;;23.70;99.90;;;;;;5103837;28;19962;-69
2022/06/08 11:00:12;;;;;;;;;;;23.80;99.90;;;;;;5103898;28;19944;-69
2022/06/08 11:02:42;;;;;;;;;;;23.80;99.90;;;;;;5103905;28;19920;-70
2022/06/08 11:05:13;;;;;;;;;;;23.80;99.90;;;;;;5103799;28;19962;-69
2022/06/08 11:07:59;;;;;;;;;;;23.80;99.90;;;;;;5103883;28;19943;-69
2022/06/08 11:10:40;;;;;;;;;;;23.90;99.90;;;;;;5103649;28;19967;-69
2022/06/08 11:13:14;;;;;;;;;;;23.70;99.90;;;;;;5102989;28;19940;-70
2022/06/08 11:15:44;;;;;;;;;;;23.40;99.90;;;;;;5103724;28;19920;-70
2022/06/08 11:18:19;;;;;;;;;;;23.30;99.90;;;;;;5103742;28;20215;-70
2022/06/08 11:20:48;;;;;;;;;;;23.20;99.90;;;;;;5102648;28;19956;-69
2022/06/08 11:23:18;;;;;;;;;;;23.00;99.90;;;;;;5103818;28;19920;-69
2022/06/08 11:25:46;;;;;;;;;;;23.00;99.90;;;;;;5103462;28;19927;-70
2022/06/08 11:28:43;;;;;;;;;;;22.90;99.90;;;;;;5103632;28;19927;-69
2022/06/08 11:31:12;;;;;;;;;;;22.80;99.90;;;;;;5103943;28;19920;-69
2022/06/08 11:33:58;;;;;;;;;;;22.70;99.90;;;;;;5103652;28;19920;-69
2022/06/08 11:36:36;;;;;;;;;;;22.70;99.90;;;;;;5103377;28;20131;-71
2022/06/08 11:39:05;;;;;;;;;;;22.60;99.90;;;;;;5103343;28;20216;-69
2022/06/08 11:41:37;;;;;;;;;;;22.70;99.90;;;;;;5103268;28;20164;-69
2022/06/08 11:44:11;;;;;;;;;;;22.70;99.90;;;;;;5103536;28;19920;-69
2022/06/08 11:46:39;;;;;;;;;;;22.90;99.90;;;;;;5103257;28;20092;-69
2022/06/08 11:49:26;;;;;;;;;;;23.10;99.90;;;;;;5102732;28;19943;-70
2022/06/08 11:51:53;;;;;;;;;;;23.40;99.90;;;;;;5103264;28;19987;-71
2022/06/08 11:54:25;;;;;;;;;;;23.90;99.90;;;;;;5103288;28;20104;-70
2022/06/08 11:57:03;;;;;;;;;;;24.10;99.90;;;;;;5103340;28;20092;-70
2022/06/08 11:59:34;;;;;;;;;;;24.20;99.90;;;;;;5103184;28;19958;-70
2022/06/08 12:02:02;;;;;;;;;;;24.00;99.90;;;;;;5106413;28;20211;-69
2022/06/08 12:04:31;;;;;;;;;;;23.90;99.90;;;;;;5107130;28;19959;-69
2022/06/08 12:06:59;;;;;;;;;;;24.00;99.90;;;;;;5106984;28;19920;-70
2022/06/08 12:09:28;;;;;;;;;;;24.00;99.90;;;;;;5107366;28;19979;-69
2022/06/08 12:11:56;;;;;;;;;;;24.10;97.10;;;;;;5106541;28;19951;-70
2022/06/08 12:14:26;;;;;;;;;;;24.20;99.00;;;;;;5107090;28;19920;-69
2022/06/08 12:16:55;;;;;;;;;;;24.30;98.70;;;;;;5106645;28;20189;-69
2022/06/08 12:19:22;;;;;;;;;;;24.30;99.60;;;;;;5106081;28;19936;-72
2022/06/08 12:22:07;;;;;;;;;;;24.30;98.70;;;;;;5106352;28;20174;-69
2022/06/08 12:24:33;;;;;;;;;;;24.40;99.10;;;;;;5106917;28;19920;-70
2022/06/08 12:27:02;;;;;;;;;;;24.50;99.90;;;;;;5106706;28;19987;-71
2022/06/08 12:29:38;;;;;;;;;;;24.50;99.70;;;;;;5106791;28;20151;-71
2022/06/08 12:32:23;;;;;;;;;;;24.60;99.90;;;;;;5107134;28;19927;-70
2022/06/08 12:34:51;;;;;;;;;;;24.50;96.40;;;;;;5106707;28;19966;-70
2022/06/08 12:37:36;;;;;;;;;;;24.50;98.50;;;;;;5106315;28;19928;-72
2022/06/08 12:40:18;;;;;;;;;;;24.60;99.90;;;;;;5106431;28;20100;-70
2022/06/08 12:42:49;;;;;;;;;;;24.60;98.90;;;;;;5097658;28;19990;-70
2022/06/08 12:45:26;;;;;;;;;;;24.70;98.90;;;;;;5106284;28;20238;-70
2022/06/08 12:47:52;;;;;;;;;;;24.80;99.90;;;;;;5106685;28;19924;-69
2022/06/08 12:50:22;;;;;;;;;;;25.30;99.50;;;;;;5106304;28;19961;-70
2022/06/08 12:52:50;;;;;;;;;;;25.70;97.90;;;;;;5106594;28;19947;-72
2022/06/08 12:55:18;;;;;;;;;;;25.90;95.50;;;;;;5106079;28;20256;-72
2022/06/08 12:57:46;;;;;;;;;;;25.90;95.40;;;;;;5106507;28;19951;-72
2022/06/08 13:00:16;;;;;;;;;;;25.70;97.10;;;;;;5106060;28;19920;-72
2022/06/08 13:02:43;;;;;;;;;;;25.50;97.70;;;;;;5104227;28;19991;-72
2022/06/08 13:05:17;;;;;;;;;;;25.30;98.00;;;;;;5104723;28;19920;-72
2022/06/08 13:07:44;;;;;;;;;;;25.20;98.00;;;;;;5105587;28;19920;-71
2022/06/08 13:10:12;;;;;;;;;;;24.70;97.70;;;;;;5104604;28;19920;-71
2022/06/08 13:12:42;;;;;;;;;;;24.60;98.60;;;;;;5101411;28;19984;-71
2022/06/08 13:15:15;;;;;;;;;;;24.60;98.80;;;;;;5105760;28;19974;-70
2022/06/08 13:17:42;;;;;;;;;;;24.80;99.10;;;;;;5105821;28;19924;-71
2022/06/08 13:20:15;;;;;;;;;;;25.20;99.40;;;;;;5105961;28;20115;-72
2022/06/08 13:22:41;;;;;;;;;;;25.80;98.40;;;;;;5105649;28;20276;-73
2022/06/08 13:25:08;;;;;;;;;;;26.30;98.00;;;;;;5105297;28;19920;-72
2022/06/08 13:27:37;;;;;;;;;;;26.60;97.20;;;;;;5105667;28;19951;-72
2022/06/08 13:30:06;;;;;;;;;;;26.50;97.50;;;;;;5105826;28;19973;-71
2022/06/08 13:32:32;;;;;;;;;;;26.40;96.00;;;;;;5105738;28;19979;-71
2022/06/08 13:35:02;;;;;;;;;;;26.40;96.40;;;;;;5105779;28;19979;-72
2022/06/08 13:37:33;;;;;;;;;;;26.30;95.20;;;;;;5105390;28;19920;-72
2022/06/08 13:40:00;;;;;;;;;;;26.20;95.40;;;;;;5105624;28;19966;-72
2022/06/08 13:42:27;;;;;;;;;;;26.20;95.70;;;;;;5105015;28;19948;-72
2022/06/08 13:44:55;;;;;;;;;;;26.30;96.10;;;;;;5105388;28;19966;-72
2022/06/08 13:47:24;;;;;;;;;;;26.20;95.50;;;;;;5105109;28;20119;-72
2022/06/08 13:49:55;;;;;;;;;;;26.00;95.80;;;;;;5105518;28;19927;-72
2022/06/08 13:52:26;;;;;;;;;;;25.90;95.70;;;;;;5105420;28;19920;-72
2022/06/08 13:54:54;;;;;;;;;;;25.90;96.30;;;;;;5105145;28;19951;-71
2022/06/08 13:57:22;;;;;;;;;;;26.00;97.40;;;;;;5104870;28;19958;-71
2022/06/08 13:59:49;;;;;;;;;;;26.10;95.60;;;;;;5105082;28;20369;-72
2022/06/08 14:02:19;;;;;;;;;;;26.20;95.20;;;;;;5104851;28;19926;-71
2022/06/08 14:04:46;;;;;;;;;;;26.10;95.00;;;;;;5104991;28;19926;-71
2022/06/08 14:15:30;;;;;;;;;;;25.60;95.20;;;;;;5102499;28;19924;-72
2022/06/08 14:17:59;;;;;;;;;;;25.20;95.40;;;;;;5104578;28;19972;-71
2022/06/08 14:20:29;;;;;;;;;;;25.10;95.60;;;;;;5104812;28;19920;-71
2022/06/08 14:22:56;;;;;;;;;;;24.70;96.30;;;;;;5104757;28;19952;-71
2022/06/08 14:25:23;;;;;;;;;;;24.50;97.10;;;;;;5104335;28;19964;-71
2022/06/08 14:27:49;;;;;;;;;;;24.20;96.90;;;;;;5104326;28;19962;-71
2022/06/08 14:30:17;;;;;;;;;;;24.10;97.80;;;;;;5104594;28;19956;-72
2022/06/08 14:32:45;;;;;;;;;;;24.30;97.50;;;;;;5104449;28;19920;-71
2022/06/08 14:35:15;;;;;;;;;;;24.40;97.70;;;;;;5104448;28;19951;-72
2022/06/08 14:37:42;;;;;;;;;;;24.50;97.80;;;;;;5104419;28;19983;-71
2022/06/08 14:40:23;;;;;;;;;;;24.60;97.60;;;;;;5104481;28;19963;-72
2022/06/08 14:42:50;;;;;;;;;;;24.80;98.10;;;;;;5103950;28;20221;-71
2022/06/08 14:45:18;;;;;;;;;;;24.90;98.40;;;;;;5104230;28;19962;-71
2022/06/08 14:47:45;;;;;;;;;;;25.00;97.10;;;;;;5103986;28;19920;-72
2022/06/08 14:50:15;;;;;;;;;;;25.00;98.00;;;;;;5104480;28;20215;-72
2022/06/08 14:52:43;;;;;;;;;;;25.00;96.80;;;;;;5103971;28;19987;-72
2022/06/08 14:56:23;;;;;;;;;;;24.80;97.00;;;;;;5103943;28;19920;-68
2022/06/08 14:58:00;;;;;;;;;;;24.80;97.70;;;;;;5103913;28;19928;-72
2022/06/08 15:00:27;;;;;;;;;;;24.80;98.10;;;;;;5104189;28;19920;-71
2022/06/08 15:02:54;;;;;;;;;;;24.80;97.30;;;;;;5103090;28;20041;-72